Hollis, NH

2:35 AM EST on January 29, 2015 (GMT -0500)
APRSWXNET Hollis NH US | Change Station
CLOSE
Current Station
Personal Weather Station
Location: Hollis, NH
Elevation: 232 ft
Nearby Weather Stations

Elev 232 ft 42.75 °N, 71.54 °W | Updated 33 minutes ago

Clear
Clear
-2 °F
Feels Like -2 °F
N
0
Wind Variable Wind from North
Gusts 0.0 mph

Today
High -- | Low -- °F
--% Chance of Precip.
Yesterday
High -- | Low -- °F
Precip. -- in
7:04 AM 4:55 PM
Waxing Gibbous, 72% visible
Pressure 30.32 in
Visibility 10.0 miles
Clouds Clear
Windchill -2 °F
Dew Point -6 °F
Humidity 84%
Rainfall 0.00 in
Snow Depth Not available.
UV 0 out of 12
Pollen .10 out of 12
Air Quality Not available.
Flu Activity Not available.
METAR KMHT 290653Z 01004KT 10SM CLR M12/M19 A3025 RMK AO2 SLP266 T11171194

More Conditions Fewer Conditions

Pressure 30.32 in
Visibility 10.0 miles
Clouds Clear
Windchill -2 °F
Dew Point -6 °F
Humidity 84%
Rainfall 0.00 in
Snow Depth Not available.
UV 0 out of 12
Pollen .10 out of 12
Air Quality Not available.
Flu Activity Not available.
METAR KMHT 290653Z 01004KT 10SM CLR M12/M19 A3025 RMK AO2 SLP266 T11171194

More Conditions Fewer Conditions

10-Day Weather Forecast

Almanac

Astronomy

Jan. 29, 2015 Rise Set
Actual Time
Civil Twilight
Nautical Twilight
Astronomical Twilight
Moon
Length of Visible Light
Length of Day
Tomorrow will be .
, % of the Moon is Illuminated

Today's Extremes

State Highs State Lows

Community

WunderPhotos

Upload Photos

1,791,387 photos uploaded!

WunderBlogs® & News

Nearby

Air Quality

  Air Quality AQ Index Pollutant
Not available.

Snow Depth

Station Depth Elevation

Earthquake Activity

City Distance Mag. Time & Date
Minimum magnitude displayed is 2.5.

Coastal Water Temperatures

Place Temperature

Nearby Weather Stations